Impacts TAF Board INFO
FOR SITUATIONAL AWARENESS. NOT TO BE USED FOR FLIGHT PLANNING PURPOSES.
IDs:

KPHL - Philadelphia Intl, PA, US

Issued at 1120 UTC 20 Jan 2018
Updated at 1249 UTC 20 Jan 2018
Potential Impact None Slight Moderate High
Time<<21/13Z 21/14Z 21/15Z 21/16Z 21/17Z 21/18Z 21/19Z 21/20Z 21/21Z 21/22Z 21/23Z 22/00Z 22/01Z
Type PRVL PRVL PRVL PRVL PRVL
VIS >6 >6 >6 >6 >6
CIG 250 150 150 150 150
Cover BKN BKN BKN BKN BKN
FltCat VFR VFR VFR VFR VFR
WX -- -- -- -- --
WDir 270 330 330 330 330
WSpd 5 5 5 5 5
WGst -- -- -- -- --

Raw TAF
KPHL 201120Z 2012/2118 25008KT P6SM FEW250
  FM201700 26012G19KT P6SM SKC
  FM202100 26008KT P6SM SKC
  FM210100 27005KT P6SM SCT150 BKN250
  FM211400 33005KT P6SM BKN150 BKN250


METAR Board
Radar Display
Forecast Discussion

FOR SITUATIONAL AWARENESS. NOT TO BE USED FOR FLIGHT PLANNING PURPOSES.